createdAt,value
2023-02-24T00:02:01.572Z,99901.19
2023-02-24T00:04:32.485Z,99901.19
2023-02-24T00:07:02.772Z,99894.00
2023-02-24T00:09:33.538Z,99895.59
2023-02-24T00:12:05.925Z,99890.34
2023-02-24T00:14:37.430Z,99890.09
2023-02-24T00:17:08.050Z,99881.41
2023-02-24T00:19:37.253Z,99878.81
2023-02-24T00:22:09.360Z,99879.66
2023-02-24T00:24:38.334Z,99877.69
2023-02-24T00:27:11.165Z,99880.25
2023-02-24T00:29:40.700Z,99871.72
2023-02-24T00:32:12.893Z,99873.59
2023-02-24T00:34:43.164Z,99874.66
2023-02-24T00:37:15.444Z,99862.00
2023-02-24T00:39:46.361Z,99855.25
2023-02-24T00:42:14.828Z,99848.50
2023-02-24T00:44:47.376Z,99847.75
2023-02-24T00:47:17.923Z,99847.94
2023-02-24T00:49:46.787Z,99839.53
2023-02-24T00:52:19.999Z,99837.13
2023-02-24T00:54:50.672Z,99834.53
2023-02-24T00:57:21.365Z,99835.41
2023-02-24T00:59:52.748Z,99832.13
2023-02-24T01:02:21.542Z,99827.78
2023-02-24T01:04:50.975Z,99832.03
2023-02-24T01:07:21.037Z,99826.88
2023-02-24T01:09:52.255Z,99830.25
2023-02-24T01:12:38.640Z,99825.75
2023-02-24T01:15:11.188Z,99829.06
2023-02-24T01:17:41.129Z,99820.03
2023-02-24T01:20:19.817Z,99824.31
2023-02-24T01:22:53.278Z,99824.22
2023-02-24T01:25:22.345Z,99812.09
2023-02-24T01:27:50.939Z,99818.13
2023-02-24T01:30:19.310Z,99805.25
2023-02-24T01:32:48.580Z,99807.81
2023-02-24T01:35:17.656Z,99801.78
2023-02-24T01:37:46.686Z,99806.03
2023-02-24T01:40:21.565Z,99797.19
2023-02-24T01:42:51.758Z,99802.16
2023-02-24T01:45:25.344Z,99802.16
2023-02-24T01:47:58.098Z,99790.81
2023-02-24T01:50:27.814Z,99795.06
2023-02-24T01:53:00.243Z,99788.84
2023-02-24T01:55:34.680Z,99797.31
2023-02-24T01:58:09.427Z,99795.41
2023-02-24T02:00:38.961Z,99787.34
2023-02-24T02:03:15.617Z,99789.81
2023-02-24T02:05:45.185Z,99788.78
2023-02-24T02:08:15.301Z,99784.44
2023-02-24T02:10:45.601Z,99776.63
2023-02-24T02:13:20.862Z,99773.16
2023-02-24T02:16:18.438Z,99769.69
2023-02-24T02:18:57.458Z,99752.53
2023-02-24T02:22:08.567Z,99752.53
2023-02-24T02:24:53.989Z,99746.69
2023-02-24T02:28:23.446Z,99741.25
2023-02-24T02:31:25.953Z,99736.09
2023-02-24T02:34:38.407Z,99734.50
2023-02-24T02:37:13.904Z,99715.78
2023-02-24T02:39:52.586Z,99722.84
2023-02-24T02:42:30.218Z,99714.56
2023-02-24T02:45:08.109Z,99714.00
2023-02-24T02:47:44.131Z,99710.69
2023-02-24T02:50:26.889Z,99706.41
2023-02-24T02:52:59.843Z,99704.66
2023-02-24T02:55:36.608Z,99698.63
2023-02-24T02:58:10.734Z,99696.97
2023-02-24T03:00:50.138Z,99692.81
2023-02-24T03:03:20.888Z,99692.00
2023-02-24T03:05:57.590Z,99685.06
2023-02-24T03:08:30.833Z,99685.06
2023-02-24T03:11:02.691Z,99678.16
2023-02-24T03:13:37.823Z,99675.56
2023-02-24T03:16:08.167Z,99658.31
2023-02-24T03:18:40.460Z,99668.72
2023-02-24T03:21:16.176Z,99670.41
2023-02-24T03:23:49.003Z,99674.63
2023-02-24T03:26:28.187Z,99658.28
2023-02-24T03:29:05.618Z,99664.22
2023-02-24T03:31:43.620Z,99654.72
2023-02-24T03:34:16.214Z,99669.47
2023-02-24T03:36:46.003Z,99656.59
2023-02-24T03:39:16.078Z,99664.47
2023-02-24T03:42:12.813Z,99656.81
2023-02-24T03:44:41.284Z,99652.56
2023-02-24T03:47:10.649Z,99649.13
2023-02-24T03:49:43.593Z,99648.19
2023-02-24T03:52:29.121Z,99650.88
2023-02-24T03:55:23.983Z,99637.09
2023-02-24T03:58:08.415Z,99642.38
2023-02-24T04:00:48.129Z,99640.78
2023-02-24T04:03:29.536Z,99648.50
2023-02-24T04:06:15.566Z,99643.34
2023-02-24T04:08:53.252Z,99639.97
2023-02-24T04:11:29.681Z,99634.88
2023-02-24T04:14:06.458Z,99633.28
2023-02-24T04:16:44.442Z,99631.59
2023-02-24T04:19:19.548Z,99636.81
2023-02-24T04:21:52.028Z,99630.78
2023-02-24T04:24:32.123Z,99631.72
2023-02-24T04:27:08.107Z,99629.16
2023-02-24T04:29:48.406Z,99629.16
2023-02-24T04:32:23.087Z,99624.81
2023-02-24T04:34:52.514Z,99611.94
2023-02-24T04:37:23.121Z,99618.84
2023-02-24T04:39:53.950Z,99619.72
2023-02-24T04:42:29.030Z,99611.94
2023-02-24T04:44:58.584Z,99620.63
2023-02-24T04:47:28.896Z,99611.94
2023-02-24T04:49:57.311Z,99605.94
2023-02-24T04:52:25.642Z,99601.63
2023-02-24T04:54:55.459Z,99605.94
2023-02-24T04:57:25.055Z,99595.63
2023-02-24T04:59:54.164Z,99591.31
2023-02-24T05:02:22.533Z,99599.91
2023-02-24T05:04:51.255Z,99599.91
2023-02-24T05:07:22.493Z,99592.19
2023-02-24T05:09:50.838Z,99594.69
2023-02-24T05:12:21.211Z,99599.84
2023-02-24T05:14:49.852Z,99587.78
2023-02-24T05:17:18.774Z,99586.97
2023-02-24T05:20:04.871Z,99575.78
2023-02-24T05:22:33.219Z,99576.50
2023-02-24T05:25:01.566Z,99567.00
2023-02-24T05:27:31.726Z,99574.81
2023-02-24T05:30:00.428Z,99572.16
2023-02-24T05:32:29.372Z,99573.91
2023-02-24T05:34:57.886Z,99568.72
2023-02-24T05:37:27.277Z,99556.63
2023-02-24T05:39:56.851Z,99558.22
2023-02-24T05:42:25.351Z,99558.31
2023-02-24T05:44:55.582Z,99553.00
2023-02-24T05:47:26.038Z,99550.38
2023-02-24T05:49:57.052Z,99546.97
2023-02-24T05:52:25.524Z,99543.44
2023-02-24T05:54:53.916Z,99541.75
2023-02-24T05:57:24.962Z,99539.97
2023-02-24T05:59:55.895Z,99535.63
2023-02-24T06:02:27.659Z,99521.78
2023-02-24T06:04:56.970Z,99523.47
2023-02-24T06:07:28.422Z,99520.88
2023-02-24T06:10:00.179Z,99520.03
2023-02-24T06:12:31.640Z,99513.16
2023-02-24T06:15:02.383Z,99502.81
2023-02-24T06:17:30.892Z,99520.03
2023-02-24T06:19:59.863Z,99511.34
2023-02-24T06:22:29.153Z,99501.03
2023-02-24T06:24:57.741Z,99499.16
2023-02-24T06:27:27.066Z,99506.91
2023-02-24T06:29:56.822Z,99501.63
2023-02-24T06:32:28.111Z,99502.34
2023-02-24T06:34:59.378Z,99493.66
2023-02-24T06:37:28.276Z,99490.13
2023-02-24T06:39:58.331Z,99491.00
2023-02-24T06:42:26.690Z,99481.50
2023-02-24T06:44:55.034Z,99481.38
2023-02-24T06:47:23.425Z,99482.97
2023-02-24T06:49:53.563Z,99484.59
2023-02-24T06:52:21.976Z,99484.53
2023-02-24T06:54:52.339Z,99479.28
2023-02-24T06:57:23.521Z,99479.22
2023-02-24T06:59:52.308Z,99479.97
2023-02-24T07:02:21.018Z,99479.97
2023-02-24T07:04:49.509Z,99473.84
2023-02-24T07:07:19.867Z,99479.06
2023-02-24T07:09:48.399Z,99476.50
2023-02-24T07:12:20.881Z,99472.25
2023-02-24T07:14:51.089Z,99469.56
2023-02-24T07:17:19.988Z,99479.00
2023-02-24T07:19:48.619Z,99463.44
2023-02-24T07:22:25.122Z,99477.31
2023-02-24T07:25:00.529Z,99476.41
2023-02-24T07:27:30.080Z,99463.44
2023-02-24T07:29:59.211Z,99465.97
2023-02-24T07:32:27.880Z,99458.16
2023-02-24T07:34:56.334Z,99456.41
2023-02-24T07:37:31.537Z,99451.25
2023-02-24T07:40:00.042Z,99434.91
2023-02-24T07:42:30.621Z,99441.91
2023-02-24T07:44:59.070Z,99430.72
2023-02-24T07:47:27.463Z,99426.38
2023-02-24T07:49:55.841Z,99417.78
2023-02-24T07:52:25.588Z,99415.19
2023-02-24T07:54:55.115Z,99410.84
2023-02-24T07:57:25.121Z,99409.06
2023-02-24T07:59:54.156Z,99401.31
2023-02-24T08:02:23.762Z,99409.88
2023-02-24T08:04:52.484Z,99406.19
2023-02-24T08:07:24.943Z,99397.59
2023-02-24T08:10:20.876Z,99388.03
2023-02-24T08:12:49.284Z,99383.69
2023-02-24T08:15:24.094Z,99384.59
2023-02-24T08:17:59.451Z,99372.69
2023-02-24T08:20:30.335Z,99361.50
2023-02-24T08:22:58.722Z,99369.22
2023-02-24T08:25:36.496Z,99367.53
2023-02-24T08:28:11.433Z,99364.97
2023-02-24T08:30:45.659Z,99360.69
2023-02-24T08:33:20.219Z,99352.97
2023-02-24T08:36:00.991Z,99353.78
2023-02-24T08:38:39.822Z,99350.31
2023-02-24T08:41:17.736Z,99351.03
2023-02-24T08:43:47.481Z,99353.56
2023-02-24T08:46:21.037Z,99356.19
2023-02-24T08:48:55.472Z,99349.25
2023-02-24T08:51:28.898Z,99338.16
2023-02-24T08:54:00.409Z,99338.97
2023-02-24T08:56:34.734Z,99327.75
2023-02-24T08:59:07.159Z,99325.16
2023-02-24T09:01:39.122Z,99324.38
2023-02-24T09:04:10.881Z,99324.41
2023-02-24T09:06:44.945Z,99320.94
2023-02-24T09:09:18.983Z,99315.81
2023-02-24T09:11:55.830Z,99308.06
2023-02-24T09:14:29.205Z,99312.28
2023-02-24T09:17:03.574Z,99302.81
2023-02-24T09:20:02.410Z,99308.97
2023-02-24T09:22:33.133Z,99300.34
2023-02-24T09:25:21.639Z,99302.94
2023-02-24T09:27:55.756Z,99297.75
2023-02-24T09:30:37.509Z,99297.66
2023-02-24T09:33:21.262Z,99298.44
2023-02-24T09:35:54.109Z,99300.09
2023-02-24T09:38:44.186Z,99282.88
2023-02-24T09:41:32.942Z,99274.28
2023-02-24T09:44:08.026Z,99267.34
2023-02-24T09:46:53.885Z,99267.34
2023-02-24T09:49:39.907Z,99264.78
2023-02-24T09:52:16.928Z,99259.63
2023-02-24T09:55:17.603Z,99259.72
2023-02-24T09:58:16.206Z,99262.22
2023-02-24T10:00:58.474Z,99245.75
2023-02-24T10:03:42.701Z,99243.97
2023-02-24T10:06:20.971Z,99241.31
2023-02-24T10:08:57.166Z,99239.47
2023-02-24T10:11:33.858Z,99238.66
2023-02-24T10:14:06.967Z,99234.41
2023-02-24T10:16:46.365Z,99226.78
2023-02-24T10:19:27.520Z,99223.22
2023-02-24T10:22:03.011Z,99228.38
2023-02-24T10:24:38.828Z,99224.88
2023-02-24T10:27:18.065Z,99216.31
2023-02-24T10:30:04.037Z,99212.88
2023-02-24T10:32:47.031Z,99208.69
2023-02-24T10:35:19.235Z,99206.91
2023-02-24T10:37:49.239Z,99205.22
2023-02-24T10:40:28.944Z,99200.75
2023-02-24T10:43:10.577Z,99206.69
2023-02-24T10:45:45.328Z,99187.81
2023-02-24T10:48:41.510Z,99188.56
2023-02-24T10:51:20.201Z,99196.09
2023-02-24T10:54:10.168Z,99188.22
2023-02-24T10:56:44.570Z,99191.44
2023-02-24T10:59:41.211Z,99180.16
2023-02-24T11:02:32.705Z,99174.91
2023-02-24T11:05:27.396Z,99173.22
2023-02-24T11:08:11.063Z,99166.28
2023-02-24T11:10:53.380Z,99157.59
2023-02-24T11:13:39.769Z,99147.22
2023-02-24T11:16:28.128Z,99149.75
2023-02-24T11:18:58.335Z,99145.25
2023-02-24T11:21:29.868Z,99140.25
2023-02-24T11:24:02.913Z,99132.66
2023-02-24T11:26:37.231Z,99134.53
2023-02-24T11:29:37.064Z,99127.47
2023-02-24T11:32:30.517Z,99117.09
2023-02-24T11:35:11.995Z,99112.78
2023-02-24T11:37:44.883Z,99111.97
2023-02-24T11:40:19.825Z,99106.81
2023-02-24T11:42:57.140Z,99091.47
2023-02-24T11:45:34.979Z,99093.28
2023-02-24T11:48:14.785Z,99083.88
2023-02-24T11:50:48.685Z,99088.94
2023-02-24T11:53:29.077Z,99083.88
2023-02-24T11:56:05.010Z,99083.88
2023-02-24T11:58:42.655Z,99074.38
2023-02-24T12:01:18.549Z,99070.94
2023-02-24T12:03:57.284Z,99075.94
2023-02-24T12:06:32.034Z,99069.94
2023-02-24T12:09:10.357Z,99062.06
2023-02-24T12:11:48.736Z,99056.88
2023-02-24T12:14:29.306Z,99050.03
2023-02-24T12:17:14.025Z,99054.28
2023-02-24T12:20:00.075Z,99049.16
2023-02-24T12:22:39.939Z,99041.44
2023-02-24T12:25:16.731Z,99033.75
2023-02-24T12:28:10.923Z,99038.09
2023-02-24T12:30:57.664Z,99027.88
2023-02-24T12:33:44.199Z,99018.41
2023-02-24T12:36:25.021Z,99009.81
2023-02-24T12:39:01.964Z,99025.31
2023-02-24T12:41:55.615Z,99015.84
2023-02-24T12:44:34.683Z,99013.25
2023-02-24T12:47:11.066Z,98998.63
2023-02-24T12:50:11.887Z,98996.91
2023-02-24T12:52:54.871Z,98994.25
2023-02-24T12:55:32.535Z,98989.84
2023-02-24T12:58:12.087Z,98980.31
2023-02-24T13:00:53.934Z,98981.19
2023-02-24T13:03:40.387Z,98969.16
2023-02-24T13:06:17.976Z,98968.25
2023-02-24T13:08:58.485Z,98966.50
2023-02-24T13:11:41.485Z,98958.88
2023-02-24T13:14:22.339Z,98965.78
2023-02-24T13:16:50.764Z,98963.25
2023-02-24T13:19:23.633Z,98942.66
2023-02-24T13:22:06.630Z,98944.34
2023-02-24T13:24:35.939Z,98941.78
2023-02-24T13:27:25.203Z,98938.34
2023-02-24T13:29:57.885Z,98926.25
2023-02-24T13:32:31.757Z,98928.00
2023-02-24T13:35:03.493Z,98923.75
2023-02-24T13:37:36.121Z,98921.97
2023-02-24T13:40:28.121Z,98919.34
2023-02-24T13:43:04.838Z,98914.19
2023-02-24T13:45:36.810Z,98909.94
2023-02-24T13:48:31.987Z,98905.50
2023-02-24T13:51:31.202Z,98907.28
2023-02-24T13:54:18.399Z,98890.09
2023-02-24T13:56:57.583Z,98886.59
2023-02-24T13:59:50.044Z,98897.81
2023-02-24T14:02:22.824Z,98895.19
2023-02-24T14:04:54.526Z,98888.34
2023-02-24T14:07:27.070Z,98883.06
2023-02-24T14:10:00.429Z,98876.16
2023-02-24T14:12:31.936Z,98875.28
2023-02-24T14:15:01.334Z,98869.28
2023-02-24T14:17:34.159Z,98872.78
2023-02-24T14:20:22.005Z,98871.97
2023-02-24T14:22:54.331Z,98869.41
2023-02-24T14:25:24.743Z,98881.38
2023-02-24T14:27:56.604Z,98871.00
2023-02-24T14:30:30.790Z,98868.50
2023-02-24T14:33:02.082Z,98869.47
2023-02-24T14:35:35.982Z,98866.03
2023-02-24T14:38:05.910Z,98858.38
2023-02-24T14:40:34.415Z,98846.34
2023-02-24T14:43:03.840Z,98842.88
2023-02-24T14:45:32.214Z,98845.38
2023-02-24T14:48:02.329Z,98859.22
2023-02-24T14:50:34.186Z,98854.09
2023-02-24T14:53:06.787Z,98858.41
2023-02-24T14:55:39.017Z,98848.13
2023-02-24T14:58:14.122Z,98845.56
2023-02-24T15:00:48.880Z,98849.91
2023-02-24T15:03:25.489Z,98844.84
2023-02-24T15:05:57.058Z,98829.31
2023-02-24T15:08:36.033Z,98834.63
2023-02-24T15:11:21.097Z,98835.47
2023-02-24T15:13:52.721Z,98822.59
2023-02-24T15:16:25.364Z,98823.50
2023-02-24T15:19:00.917Z,98819.22
2023-02-24T15:21:32.729Z,98821.88
2023-02-24T15:24:02.502Z,98815.13
2023-02-24T15:26:34.407Z,98808.31
2023-02-24T15:29:13.875Z,98800.69
2023-02-24T15:31:48.679Z,98802.44
2023-02-24T15:34:22.754Z,98793.84
2023-02-24T15:36:53.347Z,98793.84
2023-02-24T15:39:25.440Z,98791.28
2023-02-24T15:42:07.992Z,98781.88
2023-02-24T15:44:37.942Z,98765.56
2023-02-24T15:47:23.557Z,98767.44
2023-02-24T15:49:53.792Z,98757.09
2023-02-24T15:52:25.472Z,98758.81
2023-02-24T15:54:54.993Z,98762.44
2023-02-24T15:57:24.953Z,98756.41
2023-02-24T15:59:53.513Z,98754.72
2023-02-24T16:02:24.781Z,98752.94
2023-02-24T16:04:54.586Z,98746.94
2023-02-24T16:07:27.435Z,98739.22
2023-02-24T16:09:57.842Z,98733.31
2023-02-24T16:12:32.013Z,98741.97
2023-02-24T16:15:05.419Z,98742.84
2023-02-24T16:17:38.851Z,98737.69
2023-02-24T16:20:16.208Z,98748.88
2023-02-24T16:22:44.771Z,98760.78
2023-02-24T16:25:17.744Z,98752.25
2023-02-24T16:27:46.214Z,98743.63
2023-02-24T16:30:22.120Z,98751.38
2023-02-24T16:32:51.407Z,98759.84
2023-02-24T16:35:22.448Z,98764.13
2023-02-24T16:37:50.926Z,98760.53
2023-02-24T16:40:24.129Z,98756.22
2023-02-24T16:42:53.419Z,98749.31
2023-02-24T16:45:22.972Z,98751.88
2023-02-24T16:47:51.663Z,98760.41
2023-02-24T16:50:25.673Z,98763.78
2023-02-24T16:52:54.116Z,98758.53
2023-02-24T16:55:22.995Z,98754.06
2023-02-24T16:57:51.461Z,98754.03
2023-02-24T17:00:24.315Z,98754.03
2023-02-24T17:02:54.150Z,98758.28
2023-02-24T17:05:26.969Z,98760.97
2023-02-24T17:07:57.577Z,98771.19
2023-02-24T17:10:27.017Z,98760.97
2023-02-24T17:12:55.321Z,98765.31
2023-02-24T17:15:25.303Z,98761.03
2023-02-24T17:17:53.702Z,98755.81
2023-02-24T17:20:24.011Z,98757.66
2023-02-24T17:22:52.504Z,98759.34
2023-02-24T17:25:25.438Z,98760.31
2023-02-24T17:27:55.343Z,98752.59
2023-02-24T17:30:26.913Z,98756.97
2023-02-24T17:32:55.507Z,98767.31
2023-02-24T17:35:25.728Z,98756.88
2023-02-24T17:37:54.484Z,98772.31
2023-02-24T17:40:23.978Z,98764.59
2023-02-24T17:42:52.523Z,98766.38
2023-02-24T17:45:21.644Z,98778.41
2023-02-24T17:47:52.612Z,98773.28
2023-02-24T17:50:21.375Z,98781.78
2023-02-24T17:52:51.468Z,98777.41
2023-02-24T17:55:20.033Z,98779.13
2023-02-24T17:57:48.443Z,98790.22
2023-02-24T18:00:17.925Z,98783.22
2023-02-24T18:02:46.506Z,98785.81
2023-02-24T18:05:15.021Z,98802.03
2023-02-24T18:07:43.402Z,98808.75
2023-02-24T18:10:14.746Z,98798.22
2023-02-24T18:12:43.092Z,98804.75
2023-02-24T18:15:12.254Z,98800.94
2023-02-24T18:17:40.810Z,98810.00
2023-02-24T18:20:12.239Z,98805.47
2023-02-24T18:22:40.756Z,98814.75
2023-02-24T18:25:09.789Z,98809.50
2023-02-24T18:27:39.546Z,98812.06
2023-02-24T18:30:10.302Z,98825.72
2023-02-24T18:32:44.820Z,98810.25
2023-02-24T18:35:14.372Z,98808.47
2023-02-24T18:37:42.917Z,98814.50
2023-02-24T18:40:13.104Z,98811.84
2023-02-24T18:42:43.871Z,98810.97
2023-02-24T18:45:13.848Z,98812.69
2023-02-24T18:47:42.237Z,98822.97
2023-02-24T18:50:12.458Z,98823.00
2023-02-24T18:52:41.073Z,98823.88
2023-02-24T18:55:10.636Z,98826.53
2023-02-24T18:57:40.295Z,98814.41
2023-02-24T19:00:14.110Z,98823.78
2023-02-24T19:02:42.760Z,98831.28
2023-02-24T19:05:12.117Z,98832.00
2023-02-24T19:07:40.527Z,98827.47
2023-02-24T19:10:10.689Z,98831.00
2023-02-24T19:12:39.139Z,98838.75
2023-02-24T19:15:10.508Z,98839.63
2023-02-24T19:17:38.842Z,98853.28
2023-02-24T19:20:09.943Z,98850.69
2023-02-24T19:22:38.359Z,98848.91
2023-02-24T19:25:07.335Z,98839.53
2023-02-24T19:27:36.793Z,98855.06
2023-02-24T19:30:06.800Z,98842.97
2023-02-24T19:32:36.790Z,98844.59
2023-02-24T19:35:06.157Z,98839.38
2023-02-24T19:37:34.746Z,98852.22
2023-02-24T19:40:03.483Z,98854.78
2023-02-24T19:42:31.892Z,98848.72
2023-02-24T19:45:00.248Z,98861.47
2023-02-24T19:47:29.096Z,98857.94
2023-02-24T19:49:59.396Z,98875.88
2023-02-24T19:52:27.842Z,98872.19
2023-02-24T19:54:57.972Z,98878.97
2023-02-24T19:57:26.426Z,98878.81
2023-02-24T19:59:54.883Z,98890.06
2023-02-24T20:02:24.132Z,98880.56
2023-02-24T20:04:52.615Z,98878.88
2023-02-24T20:07:24.388Z,98885.03
2023-02-24T20:09:54.706Z,98884.09
2023-02-24T20:12:23.559Z,98886.81
2023-02-24T20:14:52.090Z,98885.19
2023-02-24T20:17:20.803Z,98885.19
2023-02-24T20:19:49.338Z,98888.66
2023-02-24T20:22:17.760Z,98890.34
2023-02-24T20:24:47.764Z,98892.97
2023-02-24T20:27:16.232Z,98892.09
2023-02-24T20:29:44.954Z,98888.72
2023-02-24T20:32:13.861Z,98902.50
2023-02-24T20:34:43.009Z,98895.75
2023-02-24T20:37:11.582Z,98895.88
2023-02-24T20:39:40.359Z,98895.88
2023-02-24T20:42:12.080Z,98897.66
2023-02-24T20:44:40.541Z,98901.97
2023-02-24T20:47:08.859Z,98903.75
2023-02-24T20:49:37.207Z,98899.50
2023-02-24T20:52:05.958Z,98909.75
2023-02-24T20:54:35.099Z,98908.06
2023-02-24T20:57:03.481Z,98906.44
2023-02-24T20:59:33.281Z,98908.19
2023-02-24T21:02:01.683Z,98907.41
2023-02-24T21:04:30.120Z,98908.28
2023-02-24T21:06:58.466Z,98907.53
2023-02-24T21:09:27.332Z,98908.38
2023-02-24T21:11:55.711Z,98914.44
2023-02-24T21:14:24.125Z,98899.81
2023-02-24T21:16:54.123Z,98888.72
2023-02-24T21:19:22.848Z,98900.66
2023-02-24T21:21:51.216Z,98902.34
2023-02-24T21:24:19.667Z,98909.97
2023-02-24T21:26:48.497Z,98897.94
2023-02-24T21:29:16.879Z,98906.31
2023-02-24T21:31:45.488Z,98912.25
2023-02-24T21:34:16.723Z,98925.91
2023-02-24T21:36:45.302Z,98920.63
2023-02-24T21:39:14.811Z,98912.69
2023-02-24T21:41:43.594Z,98927.00
2023-02-24T21:44:14.766Z,98919.84
2023-02-24T21:46:43.622Z,98915.31
2023-02-24T21:49:14.380Z,98926.31
2023-02-24T21:51:44.162Z,98932.13
2023-02-24T21:54:14.292Z,98929.47
2023-02-24T21:56:43.044Z,98931.22
2023-02-24T21:59:12.268Z,98926.09
2023-02-24T22:01:43.253Z,98929.56
2023-02-24T22:04:14.125Z,98933.81
2023-02-24T22:06:44.866Z,98937.28
2023-02-24T22:09:15.555Z,98932.03
2023-02-24T22:11:43.861Z,98918.53
2023-02-24T22:14:14.532Z,98939.06
2023-02-24T22:16:44.025Z,98936.50
2023-02-24T22:19:12.989Z,98930.56
2023-02-24T22:21:43.382Z,98922.06
2023-02-24T22:24:15.757Z,98917.88
2023-02-24T22:26:44.997Z,98929.09
2023-02-24T22:29:13.506Z,98925.72
2023-02-24T22:31:43.601Z,98925.00
2023-02-24T22:34:14.112Z,98923.31
2023-02-24T22:36:44.026Z,98928.44
2023-02-24T22:39:16.551Z,98941.28
2023-02-24T22:41:45.545Z,98932.53
2023-02-24T22:44:14.361Z,98939.22
2023-02-24T22:46:42.845Z,98932.16
2023-02-24T22:49:12.618Z,98937.28
2023-02-24T22:51:42.198Z,98950.81
2023-02-24T22:54:11.900Z,98951.59
2023-02-24T22:56:40.388Z,98950.69
2023-02-24T22:59:08.719Z,98954.94
2023-02-24T23:01:38.756Z,98961.84
2023-02-24T23:04:10.137Z,98950.50
2023-02-24T23:06:39.143Z,98959.00
2023-02-24T23:09:08.629Z,98962.28
2023-02-24T23:11:41.992Z,98973.28
2023-02-24T23:14:16.345Z,98962.09
2023-02-24T23:16:48.246Z,98975.72
2023-02-24T23:19:18.804Z,98962.81
2023-02-24T23:21:49.688Z,98967.06
2023-02-24T23:24:19.199Z,98970.41
2023-02-24T23:26:53.832Z,98978.13
2023-02-24T23:29:24.620Z,98983.25
2023-02-24T23:31:54.271Z,98974.75
2023-02-24T23:34:22.873Z,98980.69
2023-02-24T23:36:51.576Z,98983.19
2023-02-24T23:39:23.759Z,98984.94
2023-02-24T23:41:57.566Z,98991.84
2023-02-24T23:44:26.333Z,98994.34
2023-02-24T23:46:55.004Z,98984.88
2023-02-24T23:49:23.526Z,98988.38
2023-02-24T23:51:51.955Z,98989.25
2023-02-24T23:54:20.536Z,98999.63
2023-02-24T23:56:49.185Z,99002.97
2023-02-24T23:59:18.963Z,98992.72
